sensor_id;sensor_type;location;lat;lon;timestamp;P1;durP1;ratioP1;P2;durP2;ratioP2
59458;SDS011;45269;43.568;22.244;2023-05-31T00:00:10;8.13;;;6.75;;
59458;SDS011;45269;43.568;22.244;2023-05-31T00:02:36;9.43;;;7.95;;
59458;SDS011;45269;43.568;22.244;2023-05-31T00:05:01;9.93;;;7.63;;
59458;SDS011;45269;43.568;22.244;2023-05-31T00:07:27;10.43;;;7.80;;
59458;SDS011;45269;43.568;22.244;2023-05-31T00:09:52;9.80;;;7.35;;
59458;SDS011;45269;43.568;22.244;2023-05-31T00:12:17;9.48;;;7.88;;
59458;SDS011;45269;43.568;22.244;2023-05-31T00:14:43;7.20;;;6.50;;
59458;SDS011;45269;43.568;22.244;2023-05-31T00:17:08;6.97;;;6.28;;
59458;SDS011;45269;43.568;22.244;2023-05-31T00:19:33;8.52;;;7.15;;
59458;SDS011;45269;43.568;22.244;2023-05-31T00:21:59;8.65;;;7.25;;
59458;SDS011;45269;43.568;22.244;2023-05-31T00:24:24;11.77;;;7.45;;
59458;SDS011;45269;43.568;22.244;2023-05-31T00:26:50;11.45;;;7.97;;
59458;SDS011;45269;43.568;22.244;2023-05-31T00:29:15;9.52;;;7.97;;
59458;SDS011;45269;43.568;22.244;2023-05-31T00:31:40;11.48;;;8.32;;
59458;SDS011;45269;43.568;22.244;2023-05-31T00:34:06;7.85;;;7.05;;
59458;SDS011;45269;43.568;22.244;2023-05-31T00:36:32;7.75;;;6.95;;
59458;SDS011;45269;43.568;22.244;2023-05-31T00:38:57;8.95;;;7.15;;
59458;SDS011;45269;43.568;22.244;2023-05-31T00:41:22;8.65;;;7.22;;
59458;SDS011;45269;43.568;22.244;2023-05-31T00:43:48;7.30;;;6.63;;
59458;SDS011;45269;43.568;22.244;2023-05-31T00:46:46;8.70;;;6.65;;
59458;SDS011;45269;43.568;22.244;2023-05-31T00:49:05;7.45;;;6.75;;
59458;SDS011;45269;43.568;22.244;2023-05-31T00:51:31;10.55;;;7.32;;
59458;SDS011;45269;43.568;22.244;2023-05-31T00:53:57;7.53;;;6.75;;
59458;SDS011;45269;43.568;22.244;2023-05-31T00:56:23;8.85;;;6.85;;
59458;SDS011;45269;43.568;22.244;2023-05-31T00:58:48;8.02;;;7.25;;
59458;SDS011;45269;43.568;22.244;2023-05-31T01:01:14;9.50;;;6.68;;
59458;SDS011;45269;43.568;22.244;2023-05-31T01:03:40;8.85;;;7.80;;
59458;SDS011;45269;43.568;22.244;2023-05-31T01:06:05;10.82;;;8.45;;
59458;SDS011;45269;43.568;22.244;2023-05-31T01:08:31;11.02;;;7.95;;
59458;SDS011;45269;43.568;22.244;2023-05-31T01:10:57;13.00;;;7.40;;
59458;SDS011;45269;43.568;22.244;2023-05-31T01:13:25;8.57;;;7.53;;
59458;SDS011;45269;43.568;22.244;2023-05-31T01:16:15;11.32;;;6.75;;
59458;SDS011;45269;43.568;22.244;2023-05-31T01:18:49;8.45;;;7.15;;
59458;SDS011;45269;43.568;22.244;2023-05-31T01:21:19;10.60;;;7.43;;
59458;SDS011;45269;43.568;22.244;2023-05-31T01:24:16;13.32;;;8.82;;
59458;SDS011;45269;43.568;22.244;2023-05-31T01:26:49;11.65;;;7.50;;
59458;SDS011;45269;43.568;22.244;2023-05-31T01:29:18;10.17;;;7.87;;
59458;SDS011;45269;43.568;22.244;2023-05-31T01:31:44;7.38;;;6.55;;
59458;SDS011;45269;43.568;22.244;2023-05-31T01:34:10;9.63;;;6.85;;
59458;SDS011;45269;43.568;22.244;2023-05-31T01:36:36;10.60;;;6.80;;
59458;SDS011;45269;43.568;22.244;2023-05-31T01:39:01;10.35;;;7.10;;
59458;SDS011;45269;43.568;22.244;2023-05-31T01:41:28;12.75;;;7.30;;
59458;SDS011;45269;43.568;22.244;2023-05-31T01:43:55;9.02;;;7.22;;
59458;SDS011;45269;43.568;22.244;2023-05-31T01:46:21;12.32;;;8.60;;
59458;SDS011;45269;43.568;22.244;2023-05-31T01:48:47;12.77;;;7.30;;
59458;SDS011;45269;43.568;22.244;2023-05-31T01:51:13;10.38;;;8.32;;
59458;SDS011;45269;43.568;22.244;2023-05-31T01:53:39;13.50;;;7.50;;
59458;SDS011;45269;43.568;22.244;2023-05-31T01:56:05;9.13;;;7.10;;
59458;SDS011;45269;43.568;22.244;2023-05-31T01:58:32;10.23;;;7.63;;
59458;SDS011;45269;43.568;22.244;2023-05-31T02:00:59;10.57;;;7.10;;
59458;SDS011;45269;43.568;22.244;2023-05-31T02:03:25;10.45;;;7.55;;
59458;SDS011;45269;43.568;22.244;2023-05-31T02:06:08;14.02;;;7.30;;
59458;SDS011;45269;43.568;22.244;2023-05-31T02:08:37;7.40;;;6.57;;
59458;SDS011;45269;43.568;22.244;2023-05-31T02:11:03;8.23;;;6.65;;
59458;SDS011;45269;43.568;22.244;2023-05-31T02:13:30;12.20;;;7.50;;
59458;SDS011;45269;43.568;22.244;2023-05-31T02:15:56;10.27;;;7.57;;
59458;SDS011;45269;43.568;22.244;2023-05-31T02:18:21;9.00;;;7.75;;
59458;SDS011;45269;43.568;22.244;2023-05-31T02:20:47;9.48;;;7.57;;
59458;SDS011;45269;43.568;22.244;2023-05-31T02:23:12;9.95;;;7.68;;
59458;SDS011;45269;43.568;22.244;2023-05-31T02:25:38;7.82;;;6.93;;
59458;SDS011;45269;43.568;22.244;2023-05-31T02:28:03;8.02;;;7.13;;
59458;SDS011;45269;43.568;22.244;2023-05-31T02:30:29;8.13;;;6.70;;
59458;SDS011;45269;43.568;22.244;2023-05-31T02:32:55;12.60;;;8.75;;
59458;SDS011;45269;43.568;22.244;2023-05-31T02:35:20;11.75;;;8.90;;
59458;SDS011;45269;43.568;22.244;2023-05-31T02:37:46;9.32;;;8.05;;
59458;SDS011;45269;43.568;22.244;2023-05-31T02:40:12;10.43;;;7.13;;
59458;SDS011;45269;43.568;22.244;2023-05-31T02:42:42;10.02;;;7.35;;
59458;SDS011;45269;43.568;22.244;2023-05-31T02:45:08;11.07;;;7.60;;
59458;SDS011;45269;43.568;22.244;2023-05-31T02:47:35;9.73;;;7.00;;
59458;SDS011;45269;43.568;22.244;2023-05-31T02:50:01;11.38;;;7.43;;
59458;SDS011;45269;43.568;22.244;2023-05-31T02:52:27;7.95;;;6.80;;
59458;SDS011;45269;43.568;22.244;2023-05-31T02:54:52;8.48;;;6.10;;
59458;SDS011;45269;43.568;22.244;2023-05-31T02:57:17;7.68;;;5.97;;
59458;SDS011;45269;43.568;22.244;2023-05-31T02:59:43;11.20;;;8.07;;
59458;SDS011;45269;43.568;22.244;2023-05-31T03:02:08;12.95;;;9.77;;
59458;SDS011;45269;43.568;22.244;2023-05-31T03:04:34;14.75;;;9.30;;
59458;SDS011;45269;43.568;22.244;2023-05-31T03:07:00;15.45;;;8.80;;
59458;SDS011;45269;43.568;22.244;2023-05-31T03:09:25;12.30;;;7.75;;
59458;SDS011;45269;43.568;22.244;2023-05-31T03:11:50;8.30;;;6.05;;
59458;SDS011;45269;43.568;22.244;2023-05-31T03:14:16;9.82;;;8.32;;
59458;SDS011;45269;43.568;22.244;2023-05-31T03:16:42;22.35;;;14.05;;
59458;SDS011;45269;43.568;22.244;2023-05-31T03:19:08;23.80;;;13.80;;
59458;SDS011;45269;43.568;22.244;2023-05-31T03:21:33;21.42;;;13.68;;
59458;SDS011;45269;43.568;22.244;2023-05-31T03:23:58;16.65;;;10.60;;
59458;SDS011;45269;43.568;22.244;2023-05-31T03:26:24;10.77;;;7.97;;
59458;SDS011;45269;43.568;22.244;2023-05-31T03:28:49;8.60;;;7.55;;
59458;SDS011;45269;43.568;22.244;2023-05-31T03:31:14;6.88;;;6.20;;
59458;SDS011;45269;43.568;22.244;2023-05-31T03:33:40;8.75;;;7.30;;
59458;SDS011;45269;43.568;22.244;2023-05-31T03:36:05;8.93;;;6.70;;
59458;SDS011;45269;43.568;22.244;2023-05-31T03:38:31;8.15;;;6.82;;
59458;SDS011;45269;43.568;22.244;2023-05-31T03:40:56;11.00;;;7.90;;
59458;SDS011;45269;43.568;22.244;2023-05-31T03:43:22;10.88;;;7.80;;
59458;SDS011;45269;43.568;22.244;2023-05-31T03:45:47;13.82;;;8.85;;
59458;SDS011;45269;43.568;22.244;2023-05-31T03:48:12;10.80;;;9.40;;
59458;SDS011;45269;43.568;22.244;2023-05-31T03:50:40;10.25;;;8.13;;
59458;SDS011;45269;43.568;22.244;2023-05-31T03:53:06;9.90;;;6.97;;
59458;SDS011;45269;43.568;22.244;2023-05-31T03:55:31;8.32;;;7.03;;
59458;SDS011;45269;43.568;22.244;2023-05-31T03:57:57;7.63;;;6.35;;
59458;SDS011;45269;43.568;22.244;2023-05-31T04:00:23;9.82;;;6.95;;
59458;SDS011;45269;43.568;22.244;2023-05-31T04:02:48;13.30;;;7.25;;
59458;SDS011;45269;43.568;22.244;2023-05-31T04:05:14;8.80;;;7.30;;
59458;SDS011;45269;43.568;22.244;2023-05-31T04:07:40;9.88;;;7.35;;
59458;SDS011;45269;43.568;22.244;2023-05-31T04:10:05;10.48;;;7.35;;
59458;SDS011;45269;43.568;22.244;2023-05-31T04:12:31;10.68;;;6.65;;
59458;SDS011;45269;43.568;22.244;2023-05-31T04:14:56;8.60;;;7.80;;
59458;SDS011;45269;43.568;22.244;2023-05-31T04:17:22;9.45;;;8.18;;
59458;SDS011;45269;43.568;22.244;2023-05-31T04:19:47;8.90;;;7.55;;
59458;SDS011;45269;43.568;22.244;2023-05-31T04:22:12;9.35;;;7.25;;
59458;SDS011;45269;43.568;22.244;2023-05-31T04:24:38;11.57;;;8.15;;
59458;SDS011;45269;43.568;22.244;2023-05-31T04:27:04;8.55;;;7.70;;
59458;SDS011;45269;43.568;22.244;2023-05-31T04:29:32;9.90;;;7.55;;
59458;SDS011;45269;43.568;22.244;2023-05-31T04:31:57;8.48;;;7.63;;
59458;SDS011;45269;43.568;22.244;2023-05-31T04:34:23;12.00;;;9.45;;
59458;SDS011;45269;43.568;22.244;2023-05-31T04:36:49;16.25;;;12.32;;
59458;SDS011;45269;43.568;22.244;2023-05-31T04:39:15;15.73;;;11.25;;
59458;SDS011;45269;43.568;22.244;2023-05-31T04:41:41;12.43;;;9.98;;
59458;SDS011;45269;43.568;22.244;2023-05-31T04:44:06;11.60;;;8.18;;
59458;SDS011;45269;43.568;22.244;2023-05-31T04:46:31;11.23;;;8.07;;
59458;SDS011;45269;43.568;22.244;2023-05-31T04:48:57;8.80;;;6.72;;
59458;SDS011;45269;43.568;22.244;2023-05-31T04:51:22;10.10;;;6.68;;
59458;SDS011;45269;43.568;22.244;2023-05-31T04:53:48;8.10;;;6.40;;
59458;SDS011;45269;43.568;22.244;2023-05-31T04:56:13;7.47;;;5.85;;
59458;SDS011;45269;43.568;22.244;2023-05-31T04:58:39;6.47;;;5.85;;
59458;SDS011;45269;43.568;22.244;2023-05-31T05:01:05;6.88;;;6.18;;
59458;SDS011;45269;43.568;22.244;2023-05-31T05:03:33;7.15;;;6.45;;
59458;SDS011;45269;43.568;22.244;2023-05-31T05:06:00;8.50;;;7.28;;
59458;SDS011;45269;43.568;22.244;2023-05-31T05:08:26;11.02;;;6.72;;
59458;SDS011;45269;43.568;22.244;2023-05-31T05:10:51;9.63;;;8.05;;
59458;SDS011;45269;43.568;22.244;2023-05-31T05:13:16;10.63;;;7.90;;
59458;SDS011;45269;43.568;22.244;2023-05-31T05:15:42;9.63;;;7.97;;
59458;SDS011;45269;43.568;22.244;2023-05-31T05:18:07;10.35;;;8.80;;
59458;SDS011;45269;43.568;22.244;2023-05-31T05:20:32;12.88;;;8.13;;
59458;SDS011;45269;43.568;22.244;2023-05-31T05:22:58;9.68;;;7.85;;
59458;SDS011;45269;43.568;22.244;2023-05-31T05:25:27;12.80;;;7.95;;
59458;SDS011;45269;43.568;22.244;2023-05-31T05:27:52;11.63;;;7.28;;
59458;SDS011;45269;43.568;22.244;2023-05-31T05:30:18;13.13;;;7.53;;
59458;SDS011;45269;43.568;22.244;2023-05-31T05:32:43;16.08;;;7.45;;
59458;SDS011;45269;43.568;22.244;2023-05-31T05:35:09;9.90;;;6.38;;
59458;SDS011;45269;43.568;22.244;2023-05-31T05:37:34;8.88;;;6.88;;
59458;SDS011;45269;43.568;22.244;2023-05-31T05:40:00;9.75;;;7.60;;
59458;SDS011;45269;43.568;22.244;2023-05-31T05:42:25;6.63;;;6.03;;
59458;SDS011;45269;43.568;22.244;2023-05-31T05:44:52;8.35;;;6.47;;
59458;SDS011;45269;43.568;22.244;2023-05-31T05:47:17;7.45;;;6.70;;
59458;SDS011;45269;43.568;22.244;2023-05-31T05:49:43;7.53;;;6.80;;
59458;SDS011;45269;43.568;22.244;2023-05-31T05:52:08;7.45;;;6.65;;
59458;SDS011;45269;43.568;22.244;2023-05-31T05:54:33;8.10;;;7.10;;
59458;SDS011;45269;43.568;22.244;2023-05-31T05:56:59;9.63;;;6.28;;
59458;SDS011;45269;43.568;22.244;2023-05-31T05:59:24;8.88;;;6.78;;
59458;SDS011;45269;43.568;22.244;2023-05-31T06:01:49;7.95;;;6.50;;
59458;SDS011;45269;43.568;22.244;2023-05-31T06:04:15;7.70;;;6.00;;
59458;SDS011;45269;43.568;22.244;2023-05-31T06:06:40;10.85;;;6.65;;
59458;SDS011;45269;43.568;22.244;2023-05-31T06:09:06;8.38;;;6.60;;
59458;SDS011;45269;43.568;22.244;2023-05-31T06:11:32;8.18;;;7.20;;
59458;SDS011;45269;43.568;22.244;2023-05-31T06:13:57;12.38;;;7.20;;
59458;SDS011;45269;43.568;22.244;2023-05-31T06:16:23;8.90;;;7.22;;
59458;SDS011;45269;43.568;22.244;2023-05-31T06:18:48;11.13;;;7.25;;
59458;SDS011;45269;43.568;22.244;2023-05-31T06:21:15;8.40;;;6.45;;
59458;SDS011;45269;43.568;22.244;2023-05-31T06:23:40;9.75;;;6.22;;
59458;SDS011;45269;43.568;22.244;2023-05-31T06:26:05;9.60;;;6.75;;
59458;SDS011;45269;43.568;22.244;2023-05-31T06:28:31;7.28;;;5.95;;
59458;SDS011;45269;43.568;22.244;2023-05-31T06:30:57;10.63;;;7.05;;
59458;SDS011;45269;43.568;22.244;2023-05-31T06:33:24;6.78;;;5.60;;
59458;SDS011;45269;43.568;22.244;2023-05-31T06:35:49;7.35;;;6.57;;
59458;SDS011;45269;43.568;22.244;2023-05-31T06:38:15;9.68;;;8.60;;
59458;SDS011;45269;43.568;22.244;2023-05-31T06:40:42;17.00;;;8.82;;
59458;SDS011;45269;43.568;22.244;2023-05-31T06:43:08;11.80;;;8.70;;
59458;SDS011;45269;43.568;22.244;2023-05-31T06:45:33;15.85;;;10.73;;
59458;SDS011;45269;43.568;22.244;2023-05-31T06:47:58;10.68;;;9.02;;
59458;SDS011;45269;43.568;22.244;2023-05-31T06:50:23;10.77;;;8.15;;
59458;SDS011;45269;43.568;22.244;2023-05-31T06:52:49;10.18;;;7.25;;
59458;SDS011;45269;43.568;22.244;2023-05-31T06:55:14;7.68;;;6.78;;
59458;SDS011;45269;43.568;22.244;2023-05-31T06:57:40;8.30;;;7.50;;
59458;SDS011;45269;43.568;22.244;2023-05-31T07:00:05;8.48;;;7.60;;
59458;SDS011;45269;43.568;22.244;2023-05-31T07:02:32;13.50;;;7.85;;
59458;SDS011;45269;43.568;22.244;2023-05-31T07:04:57;10.38;;;7.50;;
59458;SDS011;45269;43.568;22.244;2023-05-31T07:07:25;11.35;;;7.18;;
59458;SDS011;45269;43.568;22.244;2023-05-31T07:09:50;12.73;;;6.75;;
59458;SDS011;45269;43.568;22.244;2023-05-31T07:12:16;9.05;;;7.85;;
59458;SDS011;45269;43.568;22.244;2023-05-31T07:14:41;10.43;;;7.70;;
59458;SDS011;45269;43.568;22.244;2023-05-31T07:17:07;8.95;;;6.78;;
59458;SDS011;45269;43.568;22.244;2023-05-31T07:19:37;7.93;;;6.70;;
59458;SDS011;45269;43.568;22.244;2023-05-31T07:22:07;6.35;;;5.75;;
59458;SDS011;45269;43.568;22.244;2023-05-31T07:24:32;8.85;;;6.50;;
59458;SDS011;45269;43.568;22.244;2023-05-31T07:26:58;9.23;;;6.50;;
59458;SDS011;45269;43.568;22.244;2023-05-31T07:29:23;7.35;;;6.55;;
59458;SDS011;45269;43.568;22.244;2023-05-31T07:31:49;12.65;;;6.38;;
59458;SDS011;45269;43.568;22.244;2023-05-31T07:34:14;9.45;;;6.35;;
59458;SDS011;45269;43.568;22.244;2023-05-31T07:36:40;7.45;;;6.38;;
59458;SDS011;45269;43.568;22.244;2023-05-31T07:39:06;8.80;;;6.32;;
59458;SDS011;45269;43.568;22.244;2023-05-31T07:41:31;10.75;;;5.85;;
59458;SDS011;45269;43.568;22.244;2023-05-31T07:43:56;7.40;;;5.82;;
59458;SDS011;45269;43.568;22.244;2023-05-31T07:46:22;7.75;;;5.30;;
59458;SDS011;45269;43.568;22.244;2023-05-31T07:48:47;7.80;;;5.90;;
59458;SDS011;45269;43.568;22.244;2023-05-31T07:51:13;6.72;;;5.40;;
59458;SDS011;45269;43.568;22.244;2023-05-31T07:53:38;5.22;;;4.47;;
59458;SDS011;45269;43.568;22.244;2023-05-31T07:56:05;4.72;;;4.32;;
59458;SDS011;45269;43.568;22.244;2023-05-31T07:58:30;6.68;;;4.65;;
59458;SDS011;45269;43.568;22.244;2023-05-31T08:00:55;5.05;;;4.55;;
59458;SDS011;45269;43.568;22.244;2023-05-31T08:03:22;5.22;;;4.50;;
59458;SDS011;45269;43.568;22.244;2023-05-31T08:05:47;5.30;;;4.80;;
59458;SDS011;45269;43.568;22.244;2023-05-31T08:08:14;6.13;;;4.65;;
59458;SDS011;45269;43.568;22.244;2023-05-31T08:10:40;5.38;;;4.30;;
59458;SDS011;45269;43.568;22.244;2023-05-31T08:13:05;7.13;;;4.80;;
59458;SDS011;45269;43.568;22.244;2023-05-31T08:15:31;5.32;;;4.05;;
59458;SDS011;45269;43.568;22.244;2023-05-31T08:17:56;8.13;;;3.53;;
59458;SDS011;45269;43.568;22.244;2023-05-31T08:20:21;4.25;;;3.85;;
59458;SDS011;45269;43.568;22.244;2023-05-31T08:22:47;5.57;;;4.40;;
59458;SDS011;45269;43.568;22.244;2023-05-31T08:25:13;4.22;;;3.90;;
59458;SDS011;45269;43.568;22.244;2023-05-31T08:27:39;6.22;;;4.20;;
59458;SDS011;45269;43.568;22.244;2023-05-31T08:30:08;8.33;;;3.93;;
59458;SDS011;45269;43.568;22.244;2023-05-31T08:32:34;4.80;;;3.90;;
59458;SDS011;45269;43.568;22.244;2023-05-31T08:35:00;4.22;;;3.83;;
59458;SDS011;45269;43.568;22.244;2023-05-31T08:37:25;4.57;;;4.10;;
59458;SDS011;45269;43.568;22.244;2023-05-31T08:39:51;4.30;;;3.90;;
59458;SDS011;45269;43.568;22.244;2023-05-31T08:42:27;5.30;;;4.50;;
59458;SDS011;45269;43.568;22.244;2023-05-31T08:44:53;7.60;;;4.82;;
59458;SDS011;45269;43.568;22.244;2023-05-31T08:47:22;6.15;;;4.38;;
59458;SDS011;45269;43.568;22.244;2023-05-31T08:49:49;5.30;;;4.80;;
59458;SDS011;45269;43.568;22.244;2023-05-31T08:52:14;10.57;;;4.45;;
59458;SDS011;45269;43.568;22.244;2023-05-31T08:54:41;5.15;;;4.10;;
59458;SDS011;45269;43.568;22.244;2023-05-31T08:57:07;4.55;;;3.85;;
59458;SDS011;45269;43.568;22.244;2023-05-31T08:59:35;5.00;;;3.50;;
59458;SDS011;45269;43.568;22.244;2023-05-31T09:02:01;4.25;;;3.38;;
59458;SDS011;45269;43.568;22.244;2023-05-31T09:04:28;4.22;;;3.45;;
59458;SDS011;45269;43.568;22.244;2023-05-31T09:06:53;4.43;;;3.35;;
59458;SDS011;45269;43.568;22.244;2023-05-31T09:09:18;4.40;;;3.45;;
59458;SDS011;45269;43.568;22.244;2023-05-31T09:11:44;5.40;;;3.60;;
59458;SDS011;45269;43.568;22.244;2023-05-31T09:14:10;5.03;;;3.25;;
59458;SDS011;45269;43.568;22.244;2023-05-31T09:16:35;4.40;;;3.80;;
59458;SDS011;45269;43.568;22.244;2023-05-31T09:19:01;4.18;;;3.72;;
59458;SDS011;45269;43.568;22.244;2023-05-31T09:21:27;4.97;;;3.90;;
59458;SDS011;45269;43.568;22.244;2023-05-31T09:23:54;7.75;;;4.68;;
59458;SDS011;45269;43.568;22.244;2023-05-31T09:26:19;4.25;;;3.47;;
59458;SDS011;45269;43.568;22.244;2023-05-31T09:28:52;4.05;;;3.40;;
59458;SDS011;45269;43.568;22.244;2023-05-31T09:31:18;3.55;;;2.67;;
59458;SDS011;45269;43.568;22.244;2023-05-31T09:33:44;4.43;;;2.70;;
59458;SDS011;45269;43.568;22.244;2023-05-31T09:36:10;3.30;;;2.92;;
59458;SDS011;45269;43.568;22.244;2023-05-31T09:38:36;2.83;;;2.63;;
59458;SDS011;45269;43.568;22.244;2023-05-31T09:43:56;3.80;;;3.08;;
59458;SDS011;45269;43.568;22.244;2023-05-31T09:46:22;4.68;;;3.33;;
59458;SDS011;45269;43.568;22.244;2023-05-31T09:48:57;8.10;;;5.40;;
59458;SDS011;45269;43.568;22.244;2023-05-31T09:51:22;5.43;;;4.93;;
59458;SDS011;45269;43.568;22.244;2023-05-31T09:53:47;3.90;;;3.60;;
59458;SDS011;45269;43.568;22.244;2023-05-31T09:56:17;3.22;;;2.92;;
59458;SDS011;45269;43.568;22.244;2023-05-31T09:58:43;6.70;;;3.63;;
59458;SDS011;45269;43.568;22.244;2023-05-31T10:01:08;13.20;;;6.00;;
59458;SDS011;45269;43.568;22.244;2023-05-31T10:03:34;6.57;;;4.85;;
59458;SDS011;45269;43.568;22.244;2023-05-31T10:06:00;6.60;;;5.30;;
59458;SDS011;45269;43.568;22.244;2023-05-31T10:08:25;6.18;;;5.00;;
59458;SDS011;45269;43.568;22.244;2023-05-31T10:10:53;6.97;;;4.70;;
59458;SDS011;45269;43.568;22.244;2023-05-31T10:13:18;6.57;;;4.85;;
59458;SDS011;45269;43.568;22.244;2023-05-31T10:15:46;5.63;;;5.13;;
59458;SDS011;45269;43.568;22.244;2023-05-31T10:18:15;10.15;;;5.22;;
59458;SDS011;45269;43.568;22.244;2023-05-31T10:20:53;7.15;;;5.65;;
59458;SDS011;45269;43.568;22.244;2023-05-31T10:23:21;7.78;;;5.25;;
59458;SDS011;45269;43.568;22.244;2023-05-31T10:28:12;6.93;;;4.88;;
59458;SDS011;45269;43.568;22.244;2023-05-31T10:30:40;5.63;;;5.07;;
59458;SDS011;45269;43.568;22.244;2023-05-31T10:33:07;6.07;;;4.93;;
59458;SDS011;45269;43.568;22.244;2023-05-31T10:35:33;6.43;;;5.82;;
59458;SDS011;45269;43.568;22.244;2023-05-31T10:37:58;6.80;;;6.05;;
59458;SDS011;45269;43.568;22.244;2023-05-31T10:40:36;7.05;;;5.00;;
59458;SDS011;45269;43.568;22.244;2023-05-31T10:43:46;5.80;;;5.30;;
59458;SDS011;45269;43.568;22.244;2023-05-31T10:45:53;5.75;;;5.15;;
59458;SDS011;45269;43.568;22.244;2023-05-31T10:50:52;8.95;;;5.53;;
59458;SDS011;45269;43.568;22.244;2023-05-31T10:53:17;8.48;;;5.85;;
59458;SDS011;45269;43.568;22.244;2023-05-31T10:55:43;12.65;;;9.20;;
59458;SDS011;45269;43.568;22.244;2023-05-31T11:00:53;13.20;;;7.78;;
59458;SDS011;45269;43.568;22.244;2023-05-31T11:03:25;7.13;;;6.40;;
59458;SDS011;45269;43.568;22.244;2023-05-31T11:05:55;12.07;;;10.80;;
59458;SDS011;45269;43.568;22.244;2023-05-31T11:08:21;11.00;;;8.60;;
59458;SDS011;45269;43.568;22.244;2023-05-31T11:10:48;10.07;;;8.35;;
59458;SDS011;45269;43.568;22.244;2023-05-31T11:13:13;7.75;;;6.95;;
59458;SDS011;45269;43.568;22.244;2023-05-31T11:15:40;8.30;;;6.68;;
59458;SDS011;45269;43.568;22.244;2023-05-31T11:18:26;7.25;;;5.95;;
59458;SDS011;45269;43.568;22.244;2023-05-31T11:20:51;10.00;;;7.05;;
59458;SDS011;45269;43.568;22.244;2023-05-31T11:25:42;7.85;;;7.07;;
59458;SDS011;45269;43.568;22.244;2023-05-31T11:28:07;5.85;;;5.20;;
59458;SDS011;45269;43.568;22.244;2023-05-31T11:30:36;6.40;;;5.90;;
59458;SDS011;45269;43.568;22.244;2023-05-31T11:33:02;6.60;;;6.00;;
59458;SDS011;45269;43.568;22.244;2023-05-31T11:35:31;6.50;;;5.50;;
59458;SDS011;45269;43.568;22.244;2023-05-31T11:38:00;6.23;;;5.37;;
59458;SDS011;45269;43.568;22.244;2023-05-31T11:40:26;7.45;;;5.45;;
59458;SDS011;45269;43.568;22.244;2023-05-31T11:42:51;5.90;;;5.30;;
59458;SDS011;45269;43.568;22.244;2023-05-31T11:45:18;7.32;;;5.07;;
59458;SDS011;45269;43.568;22.244;2023-05-31T11:50:16;7.97;;;5.68;;
59458;SDS011;45269;43.568;22.244;2023-05-31T11:52:41;6.95;;;5.60;;
59458;SDS011;45269;43.568;22.244;2023-05-31T11:55:07;5.43;;;4.90;;
59458;SDS011;45269;43.568;22.244;2023-05-31T11:57:42;5.78;;;5.28;;
59458;SDS011;45269;43.568;22.244;2023-05-31T12:00:09;7.53;;;5.47;;
59458;SDS011;45269;43.568;22.244;2023-05-31T12:02:38;5.85;;;5.32;;
59458;SDS011;45269;43.568;22.244;2023-05-31T12:05:04;6.72;;;5.45;;
59458;SDS011;45269;43.568;22.244;2023-05-31T12:07:29;7.57;;;6.78;;
59458;SDS011;45269;43.568;22.244;2023-05-31T12:09:55;8.82;;;7.40;;
59458;SDS011;45269;43.568;22.244;2023-05-31T12:12:20;8.07;;;6.40;;
59458;SDS011;45269;43.568;22.244;2023-05-31T12:14:52;6.72;;;6.07;;
59458;SDS011;45269;43.568;22.244;2023-05-31T12:17:18;6.53;;;5.93;;
59458;SDS011;45269;43.568;22.244;2023-05-31T12:19:46;9.77;;;6.50;;
59458;SDS011;45269;43.568;22.244;2023-05-31T12:22:12;6.82;;;6.15;;
59458;SDS011;45269;43.568;22.244;2023-05-31T12:24:37;6.78;;;5.57;;
59458;SDS011;45269;43.568;22.244;2023-05-31T12:27:03;15.77;;;5.60;;
59458;SDS011;45269;43.568;22.244;2023-05-31T12:29:30;7.93;;;7.13;;
59458;SDS011;45269;43.568;22.244;2023-05-31T12:32:05;9.93;;;7.25;;
59458;SDS011;45269;43.568;22.244;2023-05-31T12:34:34;12.32;;;8.38;;
59458;SDS011;45269;43.568;22.244;2023-05-31T12:39:25;7.57;;;6.87;;
59458;SDS011;45269;43.568;22.244;2023-05-31T12:41:52;6.70;;;6.00;;
59458;SDS011;45269;43.568;22.244;2023-05-31T12:44:21;5.60;;;5.10;;
59458;SDS011;45269;43.568;22.244;2023-05-31T12:46:50;5.95;;;5.45;;
59458;SDS011;45269;43.568;22.244;2023-05-31T12:49:22;8.02;;;6.47;;
59458;SDS011;45269;43.568;22.244;2023-05-31T12:52:03;8.88;;;7.43;;
59458;SDS011;45269;43.568;22.244;2023-05-31T12:54:31;11.38;;;8.55;;
59458;SDS011;45269;43.568;22.244;2023-05-31T12:56:57;6.55;;;5.75;;
59458;SDS011;45269;43.568;22.244;2023-05-31T12:59:23;6.57;;;5.97;;
59458;SDS011;45269;43.568;22.244;2023-05-31T13:01:48;6.47;;;5.78;;
59458;SDS011;45269;43.568;22.244;2023-05-31T13:04:13;6.70;;;6.10;;
59458;SDS011;45269;43.568;22.244;2023-05-31T13:06:39;6.53;;;5.30;;
59458;SDS011;45269;43.568;22.244;2023-05-31T13:09:05;6.80;;;5.47;;
59458;SDS011;45269;43.568;22.244;2023-05-31T13:11:38;6.25;;;5.65;;
59458;SDS011;45269;43.568;22.244;2023-05-31T13:14:05;8.02;;;5.97;;
59458;SDS011;45269;43.568;22.244;2023-05-31T13:16:31;6.60;;;6.00;;
59458;SDS011;45269;43.568;22.244;2023-05-31T13:18:57;7.10;;;6.18;;
59458;SDS011;45269;43.568;22.244;2023-05-31T13:21:22;7.97;;;5.53;;
59458;SDS011;45269;43.568;22.244;2023-05-31T13:23:48;5.80;;;5.30;;
59458;SDS011;45269;43.568;22.244;2023-05-31T13:26:13;5.78;;;5.30;;
59458;SDS011;45269;43.568;22.244;2023-05-31T13:28:38;6.03;;;5.50;;
59458;SDS011;45269;43.568;22.244;2023-05-31T13:31:04;7.28;;;6.53;;
59458;SDS011;45269;43.568;22.244;2023-05-31T13:33:30;7.55;;;6.80;;
59458;SDS011;45269;43.568;22.244;2023-05-31T13:35:56;7.18;;;6.55;;
59458;SDS011;45269;43.568;22.244;2023-05-31T13:38:22;7.32;;;6.63;;
59458;SDS011;45269;43.568;22.244;2023-05-31T13:40:48;10.80;;;6.72;;
59458;SDS011;45269;43.568;22.244;2023-05-31T13:43:19;8.05;;;6.50;;
59458;SDS011;45269;43.568;22.244;2023-05-31T13:45:45;6.93;;;6.13;;
59458;SDS011;45269;43.568;22.244;2023-05-31T13:48:10;8.90;;;7.00;;
59458;SDS011;45269;43.568;22.244;2023-05-31T13:50:35;10.95;;;6.88;;
59458;SDS011;45269;43.568;22.244;2023-05-31T13:53:01;9.55;;;7.30;;
59458;SDS011;45269;43.568;22.244;2023-05-31T13:55:27;7.57;;;6.88;;
59458;SDS011;45269;43.568;22.244;2023-05-31T13:57:52;8.05;;;7.28;;
59458;SDS011;45269;43.568;22.244;2023-05-31T14:00:17;7.72;;;6.72;;
59458;SDS011;45269;43.568;22.244;2023-05-31T14:02:44;8.90;;;7.30;;
59458;SDS011;45269;43.568;22.244;2023-05-31T14:05:09;7.20;;;6.32;;
59458;SDS011;45269;43.568;22.244;2023-05-31T14:07:35;7.03;;;6.38;;
59458;SDS011;45269;43.568;22.244;2023-05-31T14:10:01;10.70;;;6.85;;
59458;SDS011;45269;43.568;22.244;2023-05-31T14:12:27;8.07;;;6.22;;
59458;SDS011;45269;43.568;22.244;2023-05-31T14:14:52;6.43;;;5.82;;
59458;SDS011;45269;43.568;22.244;2023-05-31T14:17:18;6.15;;;5.65;;
59458;SDS011;45269;43.568;22.244;2023-05-31T14:19:43;5.57;;;5.00;;
59458;SDS011;45269;43.568;22.244;2023-05-31T14:22:09;6.00;;;5.28;;
59458;SDS011;45269;43.568;22.244;2023-05-31T14:24:34;7.88;;;5.38;;
59458;SDS011;45269;43.568;22.244;2023-05-31T14:26:59;8.98;;;6.05;;
59458;SDS011;45269;43.568;22.244;2023-05-31T14:29:25;6.57;;;5.45;;
59458;SDS011;45269;43.568;22.244;2023-05-31T14:31:50;7.18;;;5.82;;
59458;SDS011;45269;43.568;22.244;2023-05-31T14:34:16;6.03;;;5.43;;
59458;SDS011;45269;43.568;22.244;2023-05-31T14:36:42;6.47;;;5.80;;
59458;SDS011;45269;43.568;22.244;2023-05-31T14:39:08;6.68;;;6.00;;
59458;SDS011;45269;43.568;22.244;2023-05-31T14:41:34;8.68;;;5.88;;
59458;SDS011;45269;43.568;22.244;2023-05-31T14:44:00;8.88;;;6.15;;